Time;durP1;ratioP1;P1;durP2;ratioP2;P2;SDS_P1;SDS_P2;PMS_P1;PMS_P2;Temp;Humidity;BMP_temperature;BMP_pressure;BME280_temperature;BME280_humidity;BME280_pressure;Samples;Min_cycle;Max_cycle;Signal;HPM_P1;HPM_P2
2021/06/13 00:01:40;;;;;;;7.40;6.55;;;18.80;63.10;;;19.44;51.74;98345.06;5051524;28;20053;-38
2021/06/13 00:04:08;;;;;;;7.70;5.45;;;18.90;63.30;;;19.45;51.69;98342.16;5052276;28;20058;-37
2021/06/13 00:06:36;;;;;;;6.82;5.72;;;18.90;63.20;;;19.42;51.85;98347.13;5050849;28;20055;-37
2021/06/13 00:09:05;;;;;;;7.57;6.43;;;18.90;63.10;;;19.40;51.80;98343.78;5050365;28;20055;-37
2021/06/13 00:11:34;;;;;;;9.48;6.93;;;18.90;63.00;;;19.38;51.99;98343.16;5052096;28;20083;-37
2021/06/13 00:14:04;;;;;;;7.97;6.53;;;18.90;63.10;;;19.39;51.79;98347.53;5034201;28;20234;-37
2021/06/13 00:16:32;;;;;;;9.30;6.50;;;18.90;63.10;;;19.37;52.03;98353.13;5052371;28;20053;-38
2021/06/13 00:19:00;;;;;;;10.20;6.97;;;18.90;63.20;;;19.33;51.89;98356.41;5051216;28;20048;-38
2021/06/13 00:21:28;;;;;;;9.13;6.68;;;18.80;63.20;;;19.30;51.85;98351.44;5050753;28;20250;-38
2021/06/13 00:23:56;;;;;;;8.05;6.57;;;18.70;63.30;;;19.32;51.84;98352.06;5050982;28;20049;-38
2021/06/13 00:26:24;;;;;;;8.05;5.95;;;18.80;63.20;;;19.24;51.96;98351.19;5049393;28;20549;-38
2021/06/13 00:28:53;;;;;;;7.70;6.35;;;18.70;63.30;;;19.23;52.13;98352.25;5051622;28;20537;-38
2021/06/13 00:31:22;;;;;;;7.85;6.93;;;18.70;63.50;;;19.21;51.91;98354.31;5051969;28;20067;-38
2021/06/13 00:33:51;;;;;;;7.60;5.88;;;18.60;63.20;;;19.19;52.02;98355.53;5051700;28;20059;-38
2021/06/13 00:36:20;;;;;;;10.55;6.13;;;18.60;63.30;;;19.18;52.14;98364.66;5051152;28;20049;-38
2021/06/13 00:38:48;;;;;;;8.93;6.45;;;18.60;63.20;;;19.12;52.08;98365.47;5050410;28;20041;-38
2021/06/13 00:41:23;;;;;;;6.97;6.28;;;18.60;63.60;;;19.11;52.34;98367.31;5050113;28;20258;-38
2021/06/13 00:43:51;;;;;;;7.97;6.63;;;18.60;63.80;;;19.11;52.54;98367.31;5049100;28;20063;-38
2021/06/13 00:46:19;;;;;;;6.88;5.47;;;18.60;63.60;;;19.13;52.41;98364.41;5030135;28;20263;-38
2021/06/13 00:48:47;;;;;;;13.18;6.60;;;18.70;63.40;;;19.15;52.37;98359.66;5030190;28;20052;-38
2021/06/13 00:51:15;;;;;;;9.05;6.55;;;18.70;63.20;;;19.15;52.33;98362.34;5048384;28;20061;-38
2021/06/13 00:53:44;;;;;;;7.63;5.15;;;18.70;63.00;;;19.15;52.11;98363.19;5050423;28;20204;-38
2021/06/13 00:56:14;;;;;;;8.82;6.93;;;18.80;63.00;;;19.15;52.32;98359.66;5013690;28;20343;-38
2021/06/13 00:58:43;;;;;;;8.23;7.05;;;18.80;62.90;;;19.14;52.10;98355.31;5030080;28;20057;-38
2021/06/13 01:01:11;;;;;;;7.32;6.10;;;18.70;63.00;;;19.08;52.17;98354.22;5031781;28;20053;-38
2021/06/13 01:03:39;;;;;;;8.77;6.30;;;18.50;63.50;;;19.00;52.16;98351.66;5029493;28;20052;-38
2021/06/13 01:06:07;;;;;;;8.88;6.95;;;18.40;63.70;;;18.96;52.16;98355.78;5029594;28;20071;-38
2021/06/13 01:08:47;;;;;;;9.07;6.88;;;18.40;63.80;;;18.91;52.32;98356.41;5014351;28;20067;-38
2021/06/13 01:11:56;;;;;;;9.15;6.72;;;18.40;64.00;;;18.89;52.29;98367.38;5029666;28;20063;-38
2021/06/13 01:14:51;;;;;;;12.35;6.30;;;18.40;64.70;;;18.86;52.69;98366.94;5047766;28;20045;-37
2021/06/13 01:17:45;;;;;;;6.50;5.53;;;18.40;64.80;;;18.86;52.68;98364.22;5029400;28;20353;-37
2021/06/13 01:20:35;;;;;;;8.40;5.45;;;18.40;64.50;;;18.86;52.58;98362.41;5014399;28;20049;-37
2021/06/13 01:23:51;;;;;;;7.05;5.43;;;18.40;64.50;;;18.83;52.61;98365.47;5028831;28;20053;-37
2021/06/13 01:26:40;;;;;;;10.80;5.97;;;18.30;64.60;;;18.80;52.45;98359.63;5029739;28;20048;-37
2021/06/13 01:29:15;;;;;;;7.88;5.50;;;18.20;64.40;;;18.75;52.71;98353.97;5048575;28;20048;-37
2021/06/13 01:31:52;;;;;;;9.30;6.47;;;18.10;64.80;;;18.70;52.78;98355.38;5029142;28;20370;-37
2021/06/13 01:34:44;;;;;;;7.60;6.03;;;18.10;64.70;;;18.63;52.71;98357.22;5028851;28;20048;-37
2021/06/13 01:37:25;;;;;;;9.32;6.60;;;18.00;64.80;;;18.59;53.02;98349.69;5032824;28;20339;-37
2021/06/13 01:40:09;;;;;;;7.70;6.90;;;18.00;64.90;;;18.59;53.18;98357.78;5030115;28;20049;-37
2021/06/13 01:42:47;;;;;;;8.85;6.10;;;18.10;65.20;;;18.58;53.25;98359.66;5047501;28;20055;-37
2021/06/13 01:45:22;;;;;;;7.82;5.57;;;18.00;64.90;;;18.56;53.32;98355.50;5028848;28;20053;-37
2021/06/13 01:47:52;;;;;;;11.05;6.50;;;18.00;65.10;;;18.58;53.33;98356.94;5046512;28;20061;-37
2021/06/13 01:50:26;;;;;;;8.05;6.25;;;18.10;64.80;;;18.62;53.17;98358.22;5046738;28;20057;-37
2021/06/13 01:52:56;;;;;;;;;;;18.10;64.50;;;18.57;53.03;98357.13;5015311;28;20242;-37
2021/06/13 01:55:26;;;;;;;14.05;6.68;;;18.10;65.00;;;18.59;53.08;98355.94;5046949;28;19925;-38
2021/06/13 01:57:56;;;;;;;8.48;5.78;;;18.00;64.60;;;18.52;53.20;98356.91;5046538;28;20175;-37
2021/06/13 02:00:52;;;;;;;8.10;6.50;;;18.00;64.90;;;18.48;53.27;98356.47;5031308;28;20055;-37
2021/06/13 02:03:23;;;;;;;9.00;6.20;;;17.90;65.00;;;18.47;53.27;98354.78;5046185;28;20234;-37
2021/06/13 02:06:04;;;;;;;10.80;6.65;;;18.00;64.80;;;18.49;53.33;98355.41;5045751;28;20037;-37
2021/06/13 02:08:38;;;;;;;7.20;6.47;;;18.00;64.60;;;18.54;53.36;98354.84;5047674;28;20240;-37
2021/06/13 02:11:14;;;;;;;9.45;6.88;;;18.20;64.20;;;18.49;52.96;98358.13;5028874;28;20053;-37
2021/06/13 02:13:45;;;;;;;8.02;6.40;;;18.10;64.00;;;18.48;52.94;98357.28;5044877;28;20212;-37
2021/06/13 02:16:19;;;;;;;8.68;5.97;;;18.10;63.80;;;18.46;52.91;98359.34;5030183;28;20083;-37
2021/06/13 02:18:50;;;;;;;8.55;5.90;;;18.10;63.70;;;18.45;52.98;98354.13;5027519;28;20071;-37
2021/06/13 02:21:20;;;;;;;7.28;5.47;;;18.10;63.60;;;18.39;52.83;98358.44;5028731;28;20236;-37
2021/06/13 02:23:48;;;;;;;13.00;6.75;;;18.10;63.60;;;18.38;52.75;98351.41;5013159;28;20053;-37
2021/06/13 02:26:19;;;;;;;8.88;5.65;;;18.10;63.40;;;18.41;52.84;98355.56;5028604;28;20057;-37
2021/06/13 02:28:54;;;;;;;8.68;5.65;;;18.10;63.30;;;18.39;52.67;98352.22;5046071;28;20053;-37
2021/06/13 02:31:29;;;;;;;7.82;6.03;;;18.00;63.10;;;18.36;52.58;98361.53;5045717;28;20065;-38
2021/06/13 02:34:01;;;;;;;8.43;5.57;;;18.00;63.20;;;18.34;52.57;98366.28;5029862;28;20059;-38
2021/06/13 02:36:29;;;;;;;9.48;5.95;;;17.90;63.20;;;18.28;52.69;98365.22;5027556;28;20051;-38
2021/06/13 02:39:07;;;;;;;7.85;5.70;;;17.80;63.60;;;18.20;52.67;98367.19;5026884;28;20045;-37
2021/06/13 02:41:36;;;;;;;8.68;6.60;;;17.70;64.00;;;18.05;53.12;98370.78;5028611;28;20392;-37
2021/06/13 02:44:04;;;;;;;9.38;6.30;;;17.50;64.60;;;17.95;53.34;98367.56;5045966;28;20250;-37
2021/06/13 02:46:38;;;;;;;10.57;6.47;;;17.40;65.10;;;17.80;53.70;98372.97;5027767;28;20048;-37
2021/06/13 02:49:11;;;;;;;7.65;6.03;;;17.20;65.70;;;17.78;53.71;98375.00;5046164;28;20065;-37
2021/06/13 02:52:04;;;;;;;7.15;5.80;;;17.20;65.60;;;17.79;53.76;98382.06;5028499;28;20401;-38
2021/06/13 02:54:36;;;;;;;8.48;6.28;;;17.20;65.70;;;17.81;53.38;98374.63;5028680;28;20045;-37
2021/06/13 02:57:13;;;;;;;7.53;5.43;;;17.30;65.20;;;17.81;53.48;98380.00;5011298;28;20297;-38
2021/06/13 02:59:50;;;;;;;7.85;6.13;;;17.30;65.10;;;17.80;53.37;98381.03;5047661;28;20048;-37
2021/06/13 03:02:28;;;;;;;8.25;6.32;;;17.30;65.10;;;17.80;53.55;98380.22;5027217;28;20057;-38
2021/06/13 03:05:06;;;;;;;8.25;6.07;;;17.30;64.50;;;17.78;53.33;98385.78;5028149;28;20055;-37
2021/06/13 03:07:37;;;;;;;8.65;5.22;;;17.20;64.80;;;17.76;53.20;98377.06;5028047;28;20059;-38
2021/06/13 03:10:08;;;;;;;9.77;5.03;;;17.20;64.70;;;17.71;53.21;98384.84;5025795;28;20060;-38
2021/06/13 03:12:38;;;;;;;9.48;5.22;;;17.20;64.60;;;17.69;53.20;98390.44;5027193;28;20041;-38
2021/06/13 03:15:09;;;;;;;7.22;5.70;;;17.20;64.70;;;17.70;52.96;98397.50;5028404;28;20053;-37
2021/06/13 03:17:39;;;;;;;6.50;5.35;;;17.20;64.50;;;17.68;53.27;98396.84;5027602;28;20075;-38
2021/06/13 03:20:11;;;;;;;6.60;5.20;;;17.10;64.60;;;17.57;53.58;98399.19;5009722;28;20053;-38
2021/06/13 03:22:40;;;;;;;6.90;5.70;;;17.00;65.20;;;17.60;53.45;98404.19;5026942;28;20057;-38
2021/06/13 03:25:13;;;;;;;8.30;5.38;;;17.00;65.10;;;17.61;53.53;98405.88;5012914;28;20056;-38
2021/06/13 03:27:44;;;;;;;7.75;5.15;;;17.10;65.00;;;17.67;53.66;98413.19;5026794;28;20052;-38
2021/06/13 03:30:20;;;;;;;9.00;5.53;;;17.20;64.50;;;17.69;53.43;98409.28;5012318;28;20059;-38
2021/06/13 03:32:54;;;;;;;8.20;6.03;;;17.20;64.40;;;17.71;53.17;98409.91;5028869;28;20063;-37
2021/06/13 03:35:24;;;;;;;8.52;5.82;;;17.20;64.20;;;17.65;53.46;98407.16;5027875;28;20059;-38
2021/06/13 03:37:53;;;;;;;9.52;5.10;;;17.10;64.50;;;17.68;53.36;98414.84;5029292;28;20305;-38
2021/06/13 03:40:25;;;;;;;11.35;6.13;;;17.10;64.50;;;17.66;53.21;98422.28;5026680;28;20242;-38
2021/06/13 03:42:56;;;;;;;9.70;5.82;;;17.20;64.60;;;17.65;53.11;98416.06;5011916;28;20061;-38
2021/06/13 03:45:25;;;;;;;10.38;6.30;;;17.10;64.70;;;17.65;53.15;98417.94;5044863;28;20056;-38
2021/06/13 03:47:55;;;;;;;6.45;5.47;;;17.20;64.40;;;17.52;53.29;98416.75;5028117;28;20061;-37
2021/06/13 03:50:23;;;;;;;7.75;5.55;;;17.00;64.80;;;17.54;53.31;98415.72;5026665;28;20045;-38
2021/06/13 03:52:51;;;;;;;6.65;5.60;;;17.00;64.60;;;17.47;53.50;98415.63;5026189;28;20067;-38
2021/06/13 03:55:20;;;;;;;8.48;5.78;;;16.90;65.10;;;17.41;53.64;98413.66;5043821;28;20488;-38
2021/06/13 03:57:51;;;;;;;7.50;5.35;;;16.90;65.20;;;17.46;53.28;98422.03;5026357;28;20052;-37
2021/06/13 04:00:21;;;;;;;8.48;5.70;;;16.90;64.80;;;17.32;53.48;98419.16;5026186;28;20372;-38
2021/06/13 04:02:49;;;;;;;9.48;5.95;;;16.80;65.00;;;17.39;53.41;98421.09;5027013;28;20216;-37
2021/06/13 04:05:28;;;;;;;10.55;5.95;;;16.90;65.10;;;17.40;53.40;98420.91;5027714;28;20049;-38
2021/06/13 04:07:56;;;;;;;8.40;5.55;;;16.90;64.80;;;17.41;53.44;98417.22;5043293;28;20067;-37
2021/06/13 04:10:26;;;;;;;7.85;5.55;;;16.90;64.70;;;17.42;53.48;98426.94;5045766;28;20055;-37
2021/06/13 04:12:55;;;;;;;6.93;5.85;;;17.00;64.80;;;17.37;53.36;98426.69;5027433;28;20045;-38
2021/06/13 04:15:25;;;;;;;8.07;5.95;;;16.80;65.20;;;17.28;53.96;98428.63;5027727;28;20048;-39
2021/06/13 04:17:53;;;;;;;10.20;6.45;;;16.80;65.70;;;17.21;54.22;98443.00;5027853;28;20357;-38
2021/06/13 04:20:23;;;;;;;12.95;5.85;;;16.70;66.50;;;17.19;54.39;98443.16;5027006;28;20049;-38
2021/06/13 04:22:52;;;;;;;10.70;6.57;;;16.70;66.20;;;17.16;54.30;98445.38;5047751;28;20048;-38
2021/06/13 04:25:21;;;;;;;5.95;5.00;;;16.70;66.40;;;17.14;54.51;98440.22;5047970;28;20259;-38
2021/06/13 04:27:53;;;;;;;6.95;5.72;;;16.60;66.60;;;17.07;55.09;98450.84;5049091;28;20384;-38
2021/06/13 04:30:24;;;;;;;8.38;6.03;;;16.60;67.20;;;17.08;54.67;98449.84;5046554;22;20060;-39
2021/06/13 04:32:52;;;;;;;11.55;6.90;;;16.50;66.70;;;17.02;55.02;98450.59;5008971;28;20061;-41
2021/06/13 04:35:20;;;;;;;11.40;5.93;;;16.50;67.10;;;16.97;54.90;98452.16;5007606;28;20355;-40
2021/06/13 04:37:48;;;;;;;8.07;5.72;;;16.50;66.90;;;17.06;54.73;98461.78;5009327;28;20057;-39
2021/06/13 04:40:16;;;;;;;7.22;5.65;;;16.60;66.60;;;17.11;54.60;98460.22;5008775;28;20057;-40
2021/06/13 04:42:44;;;;;;;7.97;6.00;;;16.70;66.10;;;17.16;54.57;98453.47;5008488;28;20311;-40
2021/06/13 04:45:13;;;;;;;7.57;5.57;;;16.80;65.90;;;17.24;54.49;98462.28;5007681;28;20066;-40
2021/06/13 04:47:40;;;;;;;7.15;5.78;;;16.90;65.60;;;17.29;54.38;98461.72;5007482;28;20068;-39
2021/06/13 04:50:09;;;;;;;9.60;5.78;;;16.90;65.20;;;17.32;54.18;98459.50;5008205;28;20233;-39
2021/06/13 04:52:42;;;;;;;7.97;5.10;;;17.00;64.90;;;17.33;54.30;98463.03;5008775;28;20068;-40
2021/06/13 04:55:27;;;;;;;10.10;5.68;;;17.00;65.20;;;17.34;54.43;98461.19;4990819;28;20046;-40
2021/06/13 04:58:17;;;;;;;12.68;7.28;;;17.00;65.70;;;17.27;54.29;98461.94;5008129;28;20052;-40
2021/06/13 05:00:45;;;;;;;11.13;5.78;;;16.90;66.10;;;17.27;54.44;98461.94;4991264;28;20057;-39
2021/06/13 05:03:13;;;;;;;10.13;6.47;;;16.80;65.80;;;17.31;54.52;98468.63;5006433;28;20053;-40
2021/06/13 05:05:41;;;;;;;8.25;4.97;;;17.00;65.70;;;17.35;54.38;98474.47;4989982;28;20061;-40
2021/06/13 05:08:12;;;;;;;10.23;5.43;;;17.00;65.50;;;17.32;54.19;98475.66;5008013;28;20065;-40
2021/06/13 05:10:40;;;;;;;7.68;5.30;;;17.00;65.00;;;17.26;54.37;98471.03;5008528;28;20080;-40
2021/06/13 05:13:16;;;;;;;7.05;5.10;;;16.80;65.60;;;17.22;54.62;98467.03;4990573;28;20050;-40
2021/06/13 05:15:44;;;;;;;10.63;5.97;;;16.80;66.30;;;17.22;55.10;98474.28;5006215;28;20386;-39
2021/06/13 05:18:12;;;;;;;6.78;5.82;;;16.80;66.50;;;17.17;55.13;98472.13;5007846;28;20050;-39
2021/06/13 05:20:41;;;;;;;8.88;6.80;;;16.80;66.40;;;17.19;55.43;98474.63;5006554;28;20344;-39
2021/06/13 05:23:09;;;;;;;6.90;6.10;;;16.80;66.60;;;17.17;55.46;98473.97;4989489;28;20355;-39
2021/06/13 05:25:39;;;;;;;12.55;5.60;;;16.80;66.70;;;17.21;55.38;98473.41;5007467;28;20058;-39
2021/06/13 05:28:07;;;;;;;9.98;5.70;;;16.90;66.60;;;17.28;55.06;98485.13;5008247;28;20052;-34
2021/06/13 05:30:37;;;;;;;11.15;6.18;;;17.00;66.30;;;17.31;55.33;98478.53;5005414;28;20056;-34
2021/06/13 05:33:06;;;;;;;7.47;5.90;;;17.10;66.20;;;17.17;55.96;98482.03;5005290;28;20383;-34
2021/06/13 05:35:36;;;;;;;7.63;5.38;;;16.80;67.20;;;17.15;56.38;98482.22;5006963;28;20050;-34
2021/06/13 05:38:06;;;;;;;7.18;5.05;;;16.80;68.20;;;17.18;55.97;98487.25;5007967;28;20050;-34
2021/06/13 05:40:34;;;;;;;9.40;6.03;;;16.80;67.70;;;17.09;56.18;98494.53;5006446;28;20072;-34
2021/06/13 05:43:02;;;;;;;8.00;5.50;;;16.80;67.80;;;17.15;56.35;98492.16;5007521;28;20046;-34
2021/06/13 05:45:31;;;;;;;8.48;5.35;;;16.80;67.80;;;17.20;56.23;98490.59;5007120;28;20060;-34
2021/06/13 05:48:00;;;;;;;9.60;5.35;;;17.00;67.40;;;17.08;56.11;98497.44;5007402;28;20064;-34
2021/06/13 05:50:29;;;;;;;7.90;5.13;;;16.80;67.50;;;17.17;56.13;98501.72;5004962;28;20053;-34
2021/06/13 05:53:00;;;;;;;6.35;5.18;;;16.90;67.30;;;17.03;56.15;98500.66;5007868;28;20061;-34
2021/06/13 05:55:30;;;;;;;7.90;5.20;;;16.70;67.50;;;17.14;55.96;98499.41;5005181;28;20045;-34
2021/06/13 05:57:58;;;;;;;11.98;5.20;;;16.80;67.10;;;17.17;56.09;98507.09;5005262;28;20054;-34
2021/06/13 06:00:32;;;;;;;10.07;5.85;;;16.80;67.10;;;17.22;56.35;98510.06;5007120;28;20054;-34
2021/06/13 06:03:03;;;;;;;7.57;5.40;;;17.00;67.80;;;17.32;56.10;98521.41;5006266;28;20062;-34
2021/06/13 06:05:32;;;;;;;9.52;5.05;;;17.10;67.10;;;17.24;55.61;98508.03;5007063;28;20060;-34
2021/06/13 06:08:02;;;;;;;10.05;4.60;;;17.00;66.30;;;17.26;54.33;98505.16;5006522;28;20251;-34
2021/06/13 06:10:32;;;;;;;6.47;4.07;;;17.00;64.40;;;17.25;54.29;98503.47;5006566;28;20049;-34
2021/06/13 06:13:04;;;;;;;7.68;4.55;;;17.00;64.40;;;17.24;54.63;98505.34;5007154;28;20246;-34
2021/06/13 06:15:35;;;;;;;7.03;4.15;;;17.00;65.10;;;17.29;54.75;98507.47;5004057;28;20263;-34
2021/06/13 06:18:04;;;;;;;7.47;5.05;;;17.00;65.50;;;17.26;55.11;98507.88;5006643;28;20050;-34
2021/06/13 06:20:33;;;;;;;12.50;4.78;;;17.00;65.60;;;17.24;54.67;98508.03;5006531;28;20051;-34
2021/06/13 06:23:04;;;;;;;5.15;4.00;;;17.00;65.10;;;17.35;53.65;98508.59;5006195;28;20580;-34
2021/06/13 06:25:33;;;;;;;6.13;3.65;;;17.10;62.70;;;17.43;53.62;98503.16;5005617;28;20711;-34
2021/06/13 06:28:02;;;;;;;7.43;4.00;;;17.20;63.40;;;17.49;53.37;98516.72;5004499;28;20517;-34
2021/06/13 06:30:30;;;;;;;8.10;4.72;;;17.30;63.10;;;17.54;53.47;98520.69;5006493;28;20050;-34
2021/06/13 06:32:59;;;;;;;6.25;4.00;;;17.40;62.90;;;17.49;53.33;98523.94;5003800;28;20060;-33
2021/06/13 06:35:27;;;;;;;10.43;4.38;;;17.30;63.10;;;17.57;53.56;98523.88;5004962;28;20061;-34
2021/06/13 06:37:55;;;;;;;5.95;4.28;;;17.40;63.40;;;17.54;53.51;98524.22;5004994;28;20051;-34
2021/06/13 06:40:23;;;;;;;7.45;5.35;;;17.40;63.00;;;17.59;53.40;98523.69;5004408;28;20068;-34
2021/06/13 06:42:52;;;;;;;4.65;3.80;;;17.40;63.30;;;17.55;53.34;98527.78;5005486;28;20216;-34
2021/06/13 06:45:20;;;;;;;8.38;4.70;;;17.40;63.00;;;17.63;53.39;98528.50;5004128;28;20042;-34
2021/06/13 06:47:48;;;;;;;6.60;4.35;;;17.50;63.20;;;17.59;53.43;98526.38;5006114;28;20216;-34
2021/06/13 06:50:16;;;;;;;10.27;4.18;;;17.50;63.20;;;17.67;53.73;98537.88;5004555;28;20058;-34
2021/06/13 06:52:44;;;;;;;7.47;3.90;;;17.50;63.70;;;17.65;53.71;98544.47;5004640;28;20058;-34
2021/06/13 06:55:14;;;;;;;6.32;4.45;;;17.60;63.10;;;17.65;53.80;98547.16;5003526;28;20083;-34
2021/06/13 06:57:44;;;;;;;8.93;4.50;;;17.60;63.40;;;17.67;53.56;98545.13;5005604;28;20045;-34
2021/06/13 07:00:15;;;;;;;5.32;3.60;;;17.60;63.20;;;17.69;53.50;98552.00;4987686;28;20058;-34
2021/06/13 07:02:44;;;;;;;7.45;4.35;;;17.60;63.40;;;17.78;52.91;98558.16;5003733;28;20054;-34
2021/06/13 07:05:13;;;;;;;6.35;3.63;;;17.70;62.00;;;17.79;52.67;98557.09;5004487;28;20054;-34
2021/06/13 07:07:43;;;;;;;8.32;4.20;;;17.80;61.70;;;17.88;52.61;98557.91;5024388;28;20057;-35
2021/06/13 07:10:13;;;;;;;4.45;3.90;;;17.90;61.40;;;17.87;52.27;98566.97;5024564;28;20057;-34
2021/06/13 07:12:42;;;;;;;8.23;4.95;;;17.80;60.70;;;17.87;52.55;98565.16;5022692;28;20060;-34
2021/06/13 07:15:11;;;;;;;4.85;4.30;;;17.80;61.80;;;17.89;52.80;98562.25;5024266;28;20201;-34
2021/06/13 07:17:41;;;;;;;7.30;3.85;;;17.80;62.70;;;17.87;53.19;98565.16;5024699;28;20048;-34
2021/06/13 07:20:10;;;;;;;9.25;4.25;;;17.80;62.90;;;17.97;52.85;98554.09;5005978;28;20368;-34
2021/06/13 07:22:39;;;;;;;6.85;3.80;;;17.90;62.30;;;17.99;52.57;98557.44;5023141;28;20057;-34
2021/06/13 07:25:09;;;;;;;5.43;3.50;;;17.90;61.60;;;18.09;52.68;98559.84;5023205;28;20068;-34
2021/06/13 07:27:38;;;;;;;7.18;3.65;;;18.00;61.70;;;18.21;52.63;98565.59;5023270;28;20064;-34
2021/06/13 07:30:10;;;;;;;7.40;4.13;;;18.20;61.70;;;18.27;52.18;98567.53;5023190;28;20651;-33
2021/06/13 07:32:38;;;;;;;4.32;3.88;;;18.30;60.70;;;18.30;51.62;98570.69;5023854;28;20071;-33
2021/06/13 07:35:09;;;;;;;5.70;3.65;;;18.30;60.20;;;18.31;51.46;98576.91;5021690;28;20338;-33
2021/06/13 07:37:37;;;;;;;4.07;3.28;;;18.30;59.80;;;18.33;51.42;98565.94;5023631;28;20057;-33
2021/06/13 07:40:07;;;;;;;4.75;4.25;;;18.30;60.30;;;18.30;51.14;98575.25;5023917;28;20071;-33
2021/06/13 07:42:35;;;;;;;5.13;3.72;;;18.20;59.80;;;18.30;51.12;98577.94;5022455;28;20049;-34
2021/06/13 07:45:07;;;;;;;6.82;4.10;;;18.10;60.00;;;18.28;51.08;98577.28;5006400;28;20053;-33
2021/06/13 07:47:35;;;;;;;5.68;3.80;;;18.10;60.00;;;18.31;51.39;98585.00;5025289;28;20064;-33
2021/06/13 07:50:07;;;;;;;12.63;3.75;;;18.20;60.50;;;18.27;50.99;98587.22;5022253;28;20057;-33
2021/06/13 07:52:36;;;;;;;5.88;3.85;;;18.10;59.90;;;18.25;51.08;98586.56;5023227;28;20054;-33
2021/06/13 07:55:08;;;;;;;5.68;3.78;;;18.00;60.40;;;18.25;51.37;98585.75;5024520;28;20247;-33
2021/06/13 07:57:36;;;;;;;8.00;4.00;;;18.10;60.70;;;18.20;51.21;98583.59;5026657;28;20235;-33
2021/06/13 08:00:08;;;;;;;7.45;3.90;;;18.00;60.50;;;18.28;51.48;98591.59;5030408;28;20049;-33
2021/06/13 08:02:42;;;;;;;7.90;3.90;;;18.10;60.80;;;18.34;51.16;98590.03;5017497;28;20043;-33
2021/06/13 08:05:13;;;;;;;5.80;3.85;;;18.30;59.90;;;18.36;50.77;98593.38;5038856;28;20055;-33
2021/06/13 08:07:41;;;;;;;5.40;3.47;;;18.30;59.50;;;18.42;51.20;98599.88;5037596;28;20060;-33
2021/06/13 08:10:10;;;;;;;6.00;3.90;;;18.40;59.80;;;18.48;50.87;98596.41;5038716;28;20053;-33
2021/06/13 08:12:38;;;;;;;8.38;4.20;;;18.50;59.30;;;18.57;50.95;98586.34;5036519;28;20045;-32
2021/06/13 08:15:07;;;;;;;7.95;4.15;;;18.60;59.20;;;18.55;50.81;98583.81;5038885;28;20058;-33
2021/06/13 08:17:36;;;;;;;4.97;4.10;;;18.60;59.30;;;18.56;50.72;98582.81;5036038;28;20382;-33
2021/06/13 08:20:05;;;;;;;4.68;3.63;;;18.50;59.40;;;18.56;51.03;98585.50;5035929;28;20660;-32
2021/06/13 08:22:33;;;;;;;8.50;4.90;;;18.60;59.80;;;18.55;50.92;98575.72;5048602;28;20051;-33
2021/06/13 08:25:01;;;;;;;5.35;3.95;;;18.50;59.40;;;18.52;51.33;98578.81;5048574;28;20053;-33
2021/06/13 08:27:30;;;;;;;5.50;3.92;;;18.50;60.20;;;18.52;51.32;98573.44;5048591;28;20075;-33
2021/06/13 08:29:58;;;;;;;8.77;4.20;;;18.50;60.10;;;18.52;51.11;98581.53;5047938;28;20564;-33
2021/06/13 08:32:27;;;;;;;7.65;4.85;;;18.50;59.60;;;18.61;51.55;98579.53;5048434;28;20068;-33
2021/06/13 08:34:55;;;;;;;8.32;4.72;;;18.60;60.20;;;18.68;51.64;98577.75;5047210;28;20053;-33
2021/06/13 08:37:24;;;;;;;6.38;3.95;;;18.70;60.40;;;18.81;51.26;98579.81;5047703;28;20049;-33
2021/06/13 08:39:52;;;;;;;4.55;3.22;;;18.90;59.80;;;18.93;51.50;98585.53;5048737;28;20665;-33
2021/06/13 08:42:20;;;;;;;7.57;3.83;;;19.10;59.80;;;19.02;51.22;98581.69;5047029;28;20044;-33
2021/06/13 08:44:48;;;;;;;6.13;4.35;;;19.20;59.50;;;19.08;51.09;98578.22;5046988;28;20048;-33
2021/06/13 08:47:18;;;;;;;8.65;4.18;;;19.20;59.40;;;19.12;51.10;98582.19;5047586;28;20067;-33
2021/06/13 08:49:48;;;;;;;6.60;3.90;;;19.20;59.30;;;19.17;51.01;98574.31;5030173;28;20368;-33
2021/06/13 08:52:16;;;;;;;4.40;3.33;;;19.30;59.40;;;19.24;51.13;98579.81;5047830;28;20052;-33
2021/06/13 08:54:45;;;;;;;7.10;4.20;;;19.40;59.40;;;19.24;50.68;98585.19;5047886;28;20243;-33
2021/06/13 08:57:15;;;;;;;7.32;4.03;;;19.40;59.00;;;19.26;50.27;98585.84;5046670;28;20057;-33
2021/06/13 08:59:46;;;;;;;6.13;4.57;;;19.40;58.30;;;19.27;50.09;98582.13;5048662;28;20330;-33
2021/06/13 09:02:16;;;;;;;4.72;4.05;;;19.30;58.90;;;19.27;50.36;98580.25;5046613;28;20368;-33
2021/06/13 09:04:44;;;;;;;5.10;3.72;;;19.30;58.90;;;19.23;49.92;98576.28;5045663;28;20083;-33
2021/06/13 09:07:26;;;;;;;5.70;3.97;;;19.20;58.40;;;19.20;48.99;98579.34;5047426;28;20049;-33
2021/06/13 09:10:05;;;;;;;6.55;4.68;;;19.20;57.50;;;19.18;48.89;98584.09;5047575;28;20067;-33
2021/06/13 09:12:36;;;;;;;7.72;3.65;;;19.10;57.50;;;19.18;49.08;98577.88;5047863;28;20079;-33
2021/06/13 09:15:06;;;;;;;5.53;4.03;;;19.10;57.50;;;19.22;49.11;98576.47;5029356;28;20049;-33
2021/06/13 09:17:42;;;;;;;6.03;3.90;;;19.20;57.40;;;19.23;49.24;98570.88;5028325;28;20071;-33
2021/06/13 09:20:23;;;;;;;7.72;3.63;;;19.20;57.20;;;19.25;49.18;98574.22;5047554;28;20246;-32
2021/06/13 09:23:09;;;;;;;7.47;4.00;;;19.20;56.90;;;19.15;47.97;98567.47;5045997;28;20065;-33
2021/06/13 09:25:41;;;;;;;6.07;3.92;;;19.10;55.40;;;19.19;48.38;98566.91;5046186;28;20242;-32
2021/06/13 09:28:13;;;;;;;6.30;3.53;;;19.20;56.80;;;19.25;49.50;98573.34;5046020;28;20049;-33
2021/06/13 09:30:53;;;;;;;6.95;3.78;;;19.30;58.00;;;19.26;49.18;98570.47;5046257;28;20243;-32
2021/06/13 09:33:30;;;;;;;6.75;4.53;;;19.40;57.50;;;19.31;49.19;98569.91;5046645;28;20392;-33
2021/06/13 09:36:06;;;;;;;5.22;3.75;;;19.50;57.30;;;19.37;49.44;98579.09;5046541;28;20057;-33
2021/06/13 09:38:43;;;;;;;4.07;3.67;;;19.50;57.60;;;19.43;49.06;98581.00;5046953;28;20037;-33
2021/06/13 09:41:18;;;;;;;5.75;3.80;;;19.60;57.10;;;19.50;48.94;98584.56;5045663;28;20051;-33
2021/06/13 09:44:04;;;;;;;4.47;3.85;;;19.60;57.30;;;19.47;48.69;98584.97;5046476;28;20059;-33
2021/06/13 09:46:36;;;;;;;6.78;4.20;;;19.70;57.00;;;19.56;48.98;98588.38;5046580;28;20053;-34
2021/06/13 09:49:11;;;;;;;6.55;3.60;;;19.70;57.20;;;19.59;49.21;98591.50;5047480;28;20063;-33
2021/06/13 09:51:52;;;;;;;8.38;3.90;;;19.70;57.50;;;19.60;48.72;98589.63;5048224;28;20260;-33
2021/06/13 09:54:26;;;;;;;5.22;3.50;;;19.70;56.90;;;19.62;48.14;98588.44;5045575;28;20052;-33
2021/06/13 09:56:56;;;;;;;6.75;3.80;;;19.70;55.50;;;19.65;48.65;98584.50;5028018;28;20057;-33
2021/06/13 09:59:28;;;;;;;6.28;4.43;;;19.70;56.60;;;19.66;48.49;98584.31;5046854;28;20041;-33
2021/06/13 10:02:02;;;;;;;5.03;3.38;;;19.80;55.90;;;19.72;47.99;98592.69;5045950;28;20053;-33
2021/06/13 10:04:39;;;;;;;5.47;3.88;;;19.90;55.90;;;19.75;48.25;98590.41;5044985;28;20045;-33
2021/06/13 10:07:18;;;;;;;8.13;3.25;;;19.90;56.00;;;19.84;48.65;98599.22;5046439;28;20063;-33
2021/06/13 10:09:53;;;;;;;3.35;3.05;;;20.00;56.40;;;19.94;47.79;98602.38;5045600;28;20061;-33
2021/06/13 10:12:22;;;;;;;4.47;3.03;;;20.20;54.80;;;19.98;46.80;98600.94;5046374;28;20083;-33
2021/06/13 10:14:52;;;;;;;5.00;4.03;;;20.20;54.20;;;20.04;47.00;98596.63;5046245;28;20584;-33
2021/06/13 10:17:34;;;;;;;6.45;3.83;;;20.30;54.30;;;20.05;46.79;98590.19;5046217;28;20063;-33
2021/06/13 10:20:03;;;;;;;3.93;3.13;;;20.30;54.30;;;20.06;47.67;98590.00;5045486;28;20246;-33
2021/06/13 10:22:31;;;;;;;4.00;3.42;;;20.40;54.60;;;20.13;48.21;98589.19;5030623;28;20504;-44
2021/06/13 10:24:59;;;;;;;5.88;3.58;;;20.40;56.00;;;20.25;48.53;98593.00;5028039;28;20048;-35
2021/06/13 10:27:27;;;;;;;6.90;3.10;;;20.60;56.10;;;20.33;47.77;98600.94;5027876;28;20044;-44
2021/06/13 10:29:56;;;;;;;5.38;3.22;;;20.70;55.20;;;20.46;47.88;98592.88;5027139;28;20049;-46
2021/06/13 10:32:25;;;;;;;7.70;3.63;;;20.80;55.20;;;20.61;47.37;98590.06;5045267;28;20061;-46
2021/06/13 10:34:55;;;;;;;9.07;3.53;;;21.00;54.80;;;20.64;46.15;98589.66;5027441;28;20057;-45
2021/06/13 10:37:22;;;;;;;10.27;4.13;;;21.10;52.60;;;20.76;46.14;98583.66;5044881;28;20051;-45